sensor_id;sensor_type;location;lat;lon;timestamp;temperature;humidity
1700;DHT22;847;48.058;7.810;2022-07-23T00:00:10;24.60;82.70
1700;DHT22;847;48.058;7.810;2022-07-23T00:02:37;24.90;84.00
1700;DHT22;847;48.058;7.810;2022-07-23T00:05:04;24.60;82.80
1700;DHT22;847;48.058;7.810;2022-07-23T00:07:32;24.40;82.80
1700;DHT22;847;48.058;7.810;2022-07-23T00:09:59;24.30;81.60
1700;DHT22;847;48.058;7.810;2022-07-23T00:12:25;24.30;81.90
1700;DHT22;847;48.058;7.810;2022-07-23T00:14:52;24.80;82.90
1700;DHT22;847;48.058;7.810;2022-07-23T00:17:19;24.60;83.80
1700;DHT22;847;48.058;7.810;2022-07-23T00:19:45;24.40;86.20
1700;DHT22;847;48.058;7.810;2022-07-23T00:22:12;24.60;83.00
1700;DHT22;847;48.058;7.810;2022-07-23T00:24:41;24.90;82.30
1700;DHT22;847;48.058;7.810;2022-07-23T00:27:07;25.20;81.00
1700;DHT22;847;48.058;7.810;2022-07-23T00:29:34;25.50;79.90
1700;DHT22;847;48.058;7.810;2022-07-23T00:32:01;25.50;79.10
1700;DHT22;847;48.058;7.810;2022-07-23T00:34:27;25.50;79.10
1700;DHT22;847;48.058;7.810;2022-07-23T00:36:54;25.50;79.30
1700;DHT22;847;48.058;7.810;2022-07-23T00:39:21;25.40;80.10
1700;DHT22;847;48.058;7.810;2022-07-23T00:41:50;25.50;79.70
1700;DHT22;847;48.058;7.810;2022-07-23T00:44:19;25.30;79.90
1700;DHT22;847;48.058;7.810;2022-07-23T00:46:47;25.20;80.00
1700;DHT22;847;48.058;7.810;2022-07-23T00:49:15;25.20;78.90
1700;DHT22;847;48.058;7.810;2022-07-23T00:51:41;25.20;79.10
1700;DHT22;847;48.058;7.810;2022-07-23T00:54:09;25.20;79.10
1700;DHT22;847;48.058;7.810;2022-07-23T00:56:35;25.20;78.20
1700;DHT22;847;48.058;7.810;2022-07-23T00:59:04;25.30;77.90
1700;DHT22;847;48.058;7.810;2022-07-23T01:01:31;25.30;77.20
1700;DHT22;847;48.058;7.810;2022-07-23T01:03:58;25.20;76.80
1700;DHT22;847;48.058;7.810;2022-07-23T01:06:25;25.30;78.50
1700;DHT22;847;48.058;7.810;2022-07-23T01:08:52;25.30;78.60
1700;DHT22;847;48.058;7.810;2022-07-23T01:11:20;25.40;80.30
1700;DHT22;847;48.058;7.810;2022-07-23T01:13:47;25.40;79.90
1700;DHT22;847;48.058;7.810;2022-07-23T01:16:15;25.00;81.30
1700;DHT22;847;48.058;7.810;2022-07-23T01:18:42;24.80;85.50
1700;DHT22;847;48.058;7.810;2022-07-23T01:21:11;24.40;86.40
1700;DHT22;847;48.058;7.810;2022-07-23T01:23:40;24.30;87.60
1700;DHT22;847;48.058;7.810;2022-07-23T01:26:07;24.20;88.70
1700;DHT22;847;48.058;7.810;2022-07-23T01:28:34;24.10;88.90
1700;DHT22;847;48.058;7.810;2022-07-23T01:31:00;23.70;91.10
1700;DHT22;847;48.058;7.810;2022-07-23T01:33:27;23.40;91.60
1700;DHT22;847;48.058;7.810;2022-07-23T01:35:54;23.40;92.80
1700;DHT22;847;48.058;7.810;2022-07-23T01:38:20;23.40;93.50
1700;DHT22;847;48.058;7.810;2022-07-23T01:40:48;23.50;93.20
1700;DHT22;847;48.058;7.810;2022-07-23T01:43:15;23.60;94.00
1700;DHT22;847;48.058;7.810;2022-07-23T01:45:42;23.40;93.40
1700;DHT22;847;48.058;7.810;2022-07-23T01:48:09;23.00;94.20
1700;DHT22;847;48.058;7.810;2022-07-23T01:50:36;22.80;96.20
1700;DHT22;847;48.058;7.810;2022-07-23T01:53:03;22.70;95.40
1700;DHT22;847;48.058;7.810;2022-07-23T01:55:30;22.40;96.40
1700;DHT22;847;48.058;7.810;2022-07-23T01:57:58;22.20;98.40
1700;DHT22;847;48.058;7.810;2022-07-23T02:00:24;22.20;97.70
1700;DHT22;847;48.058;7.810;2022-07-23T02:02:51;22.60;97.00
1700;DHT22;847;48.058;7.810;2022-07-23T02:05:18;22.90;94.90
1700;DHT22;847;48.058;7.810;2022-07-23T02:07:44;22.80;94.30
1700;DHT22;847;48.058;7.810;2022-07-23T02:10:11;23.00;93.60
1700;DHT22;847;48.058;7.810;2022-07-23T02:12:38;22.70;94.10
1700;DHT22;847;48.058;7.810;2022-07-23T02:15:07;22.50;94.70
1700;DHT22;847;48.058;7.810;2022-07-23T02:17:34;22.60;94.20
1700;DHT22;847;48.058;7.810;2022-07-23T02:20:01;22.60;94.50
1700;DHT22;847;48.058;7.810;2022-07-23T02:22:28;22.40;94.90
1700;DHT22;847;48.058;7.810;2022-07-23T02:24:54;22.30;95.30
1700;DHT22;847;48.058;7.810;2022-07-23T02:27:21;22.60;96.30
1700;DHT22;847;48.058;7.810;2022-07-23T02:29:48;22.50;95.50
1700;DHT22;847;48.058;7.810;2022-07-23T02:32:16;22.30;96.70
1700;DHT22;847;48.058;7.810;2022-07-23T02:34:43;22.60;95.20
1700;DHT22;847;48.058;7.810;2022-07-23T02:37:10;22.80;93.70
1700;DHT22;847;48.058;7.810;2022-07-23T02:39:36;22.90;93.00
1700;DHT22;847;48.058;7.810;2022-07-23T02:42:03;22.90;92.10
1700;DHT22;847;48.058;7.810;2022-07-23T02:44:30;22.90;92.60
1700;DHT22;847;48.058;7.810;2022-07-23T02:46:57;23.00;92.50
1700;DHT22;847;48.058;7.810;2022-07-23T02:49:25;23.00;92.40
1700;DHT22;847;48.058;7.810;2022-07-23T02:51:52;22.90;92.30
1700;DHT22;847;48.058;7.810;2022-07-23T02:54:19;22.80;92.20
1700;DHT22;847;48.058;7.810;2022-07-23T02:56:45;22.60;93.30
1700;DHT22;847;48.058;7.810;2022-07-23T02:59:12;22.50;94.10
1700;DHT22;847;48.058;7.810;2022-07-23T03:01:39;22.50;94.90
1700;DHT22;847;48.058;7.810;2022-07-23T03:04:06;22.70;94.10
1700;DHT22;847;48.058;7.810;2022-07-23T03:06:34;22.70;94.10
1700;DHT22;847;48.058;7.810;2022-07-23T03:09:00;22.80;94.40
1700;DHT22;847;48.058;7.810;2022-07-23T03:11:27;22.80;93.80
1700;DHT22;847;48.058;7.810;2022-07-23T03:13:54;22.50;95.00
1700;DHT22;847;48.058;7.810;2022-07-23T03:16:21;22.40;95.90
1700;DHT22;847;48.058;7.810;2022-07-23T03:18:47;22.30;96.90
1700;DHT22;847;48.058;7.810;2022-07-23T03:21:14;22.20;96.90
1700;DHT22;847;48.058;7.810;2022-07-23T03:23:42;22.30;96.80
1700;DHT22;847;48.058;7.810;2022-07-23T03:26:09;22.40;96.40
1700;DHT22;847;48.058;7.810;2022-07-23T03:28:36;22.60;96.10
1700;DHT22;847;48.058;7.810;2022-07-23T03:31:02;22.70;95.70
1700;DHT22;847;48.058;7.810;2022-07-23T03:33:29;22.90;95.00
1700;DHT22;847;48.058;7.810;2022-07-23T03:35:56;22.80;96.20
1700;DHT22;847;48.058;7.810;2022-07-23T03:38:22;22.70;96.30
1700;DHT22;847;48.058;7.810;2022-07-23T03:40:50;22.70;96.10
1700;DHT22;847;48.058;7.810;2022-07-23T03:43:17;22.50;96.60
1700;DHT22;847;48.058;7.810;2022-07-23T03:45:44;22.50;97.40
1700;DHT22;847;48.058;7.810;2022-07-23T03:48:11;22.60;96.70
1700;DHT22;847;48.058;7.810;2022-07-23T03:50:37;22.60;96.00
1700;DHT22;847;48.058;7.810;2022-07-23T03:53:04;22.70;95.80
1700;DHT22;847;48.058;7.810;2022-07-23T03:55:31;22.80;95.60
1700;DHT22;847;48.058;7.810;2022-07-23T03:57:59;22.80;96.00
1700;DHT22;847;48.058;7.810;2022-07-23T04:00:26;22.80;95.80
1700;DHT22;847;48.058;7.810;2022-07-23T04:02:52;22.80;96.20
1700;DHT22;847;48.058;7.810;2022-07-23T04:05:19;22.80;95.80
1700;DHT22;847;48.058;7.810;2022-07-23T04:07:46;22.30;98.20
1700;DHT22;847;48.058;7.810;2022-07-23T04:10:12;22.00;99.00
1700;DHT22;847;48.058;7.810;2022-07-23T04:12:39;21.80;99.00
1700;DHT22;847;48.058;7.810;2022-07-23T04:15:09;22.00;99.00
1700;DHT22;847;48.058;7.810;2022-07-23T04:17:35;22.10;98.60
1700;DHT22;847;48.058;7.810;2022-07-23T04:20:02;22.20;98.20
1700;DHT22;847;48.058;7.810;2022-07-23T04:22:30;22.40;97.90
1700;DHT22;847;48.058;7.810;2022-07-23T04:24:56;22.40;97.70
1700;DHT22;847;48.058;7.810;2022-07-23T04:27:23;22.30;98.40
1700;DHT22;847;48.058;7.810;2022-07-23T04:29:50;22.30;98.40
1700;DHT22;847;48.058;7.810;2022-07-23T04:32:18;22.10;99.00
1700;DHT22;847;48.058;7.810;2022-07-23T04:34:44;22.20;98.80
1700;DHT22;847;48.058;7.810;2022-07-23T04:37:11;22.30;98.20
1700;DHT22;847;48.058;7.810;2022-07-23T04:39:38;22.40;98.00
1700;DHT22;847;48.058;7.810;2022-07-23T04:42:05;22.40;97.70
1700;DHT22;847;48.058;7.810;2022-07-23T04:44:31;22.40;98.00
1700;DHT22;847;48.058;7.810;2022-07-23T04:46:58;22.40;97.80
1700;DHT22;847;48.058;7.810;2022-07-23T04:49:26;22.40;97.60
1700;DHT22;847;48.058;7.810;2022-07-23T04:51:53;22.50;97.70
1700;DHT22;847;48.058;7.810;2022-07-23T04:54:19;22.50;98.10
1700;DHT22;847;48.058;7.810;2022-07-23T04:56:46;22.50;97.90
1700;DHT22;847;48.058;7.810;2022-07-23T04:59:13;22.50;98.30
1700;DHT22;847;48.058;7.810;2022-07-23T05:01:40;22.40;98.20
1700;DHT22;847;48.058;7.810;2022-07-23T05:04:07;22.40;98.50
1700;DHT22;847;48.058;7.810;2022-07-23T05:06:35;22.50;98.70
1700;DHT22;847;48.058;7.810;2022-07-23T05:09:02;22.50;98.70
1700;DHT22;847;48.058;7.810;2022-07-23T05:11:28;22.50;98.70
1700;DHT22;847;48.058;7.810;2022-07-23T05:13:55;22.60;98.30
1700;DHT22;847;48.058;7.810;2022-07-23T05:16:22;22.60;97.40
1700;DHT22;847;48.058;7.810;2022-07-23T05:18:49;22.60;96.40
1700;DHT22;847;48.058;7.810;2022-07-23T05:21:15;22.70;96.50
1700;DHT22;847;48.058;7.810;2022-07-23T05:23:44;22.70;96.70
1700;DHT22;847;48.058;7.810;2022-07-23T05:26:10;22.70;97.70
1700;DHT22;847;48.058;7.810;2022-07-23T05:28:37;22.80;97.10
1700;DHT22;847;48.058;7.810;2022-07-23T05:31:04;22.80;96.60
1700;DHT22;847;48.058;7.810;2022-07-23T05:33:31;22.80;96.70
1700;DHT22;847;48.058;7.810;2022-07-23T05:36:00;22.90;96.30
1700;DHT22;847;48.058;7.810;2022-07-23T05:38:28;22.80;96.30
1700;DHT22;847;48.058;7.810;2022-07-23T05:40:56;22.80;96.30
1700;DHT22;847;48.058;7.810;2022-07-23T05:43:23;22.90;97.20
1700;DHT22;847;48.058;7.810;2022-07-23T05:45:49;22.90;97.30
1700;DHT22;847;48.058;7.810;2022-07-23T05:48:16;23.00;96.80
1700;DHT22;847;48.058;7.810;2022-07-23T05:50:43;23.10;97.40
1700;DHT22;847;48.058;7.810;2022-07-23T05:53:10;23.00;98.20
1700;DHT22;847;48.058;7.810;2022-07-23T05:55:36;22.90;98.60
1700;DHT22;847;48.058;7.810;2022-07-23T05:58:04;22.90;99.00
1700;DHT22;847;48.058;7.810;2022-07-23T06:00:32;22.90;99.00
1700;DHT22;847;48.058;7.810;2022-07-23T06:02:58;22.90;99.00
1700;DHT22;847;48.058;7.810;2022-07-23T06:05:25;22.80;99.00
1700;DHT22;847;48.058;7.810;2022-07-23T06:07:52;22.70;99.00
1700;DHT22;847;48.058;7.810;2022-07-23T06:10:19;22.80;99.00
1700;DHT22;847;48.058;7.810;2022-07-23T06:12:46;22.80;99.00
1700;DHT22;847;48.058;7.810;2022-07-23T06:15:15;22.80;99.00
1700;DHT22;847;48.058;7.810;2022-07-23T06:17:41;22.90;98.30
1700;DHT22;847;48.058;7.810;2022-07-23T06:20:09;22.90;98.00
1700;DHT22;847;48.058;7.810;2022-07-23T06:22:36;23.00;98.20
1700;DHT22;847;48.058;7.810;2022-07-23T06:25:04;22.90;98.10
1700;DHT22;847;48.058;7.810;2022-07-23T06:27:31;23.00;97.40
1700;DHT22;847;48.058;7.810;2022-07-23T06:29:57;23.00;97.10
1700;DHT22;847;48.058;7.810;2022-07-23T06:32:25;23.10;96.90
1700;DHT22;847;48.058;7.810;2022-07-23T06:34:52;23.20;96.50
1700;DHT22;847;48.058;7.810;2022-07-23T06:37:19;23.10;96.50
1700;DHT22;847;48.058;7.810;2022-07-23T06:39:46;23.00;96.90
1700;DHT22;847;48.058;7.810;2022-07-23T06:42:12;23.10;97.60
1700;DHT22;847;48.058;7.810;2022-07-23T06:44:40;23.10;97.20
1700;DHT22;847;48.058;7.810;2022-07-23T06:47:07;23.10;97.60
1700;DHT22;847;48.058;7.810;2022-07-23T06:49:35;23.20;97.40
1700;DHT22;847;48.058;7.810;2022-07-23T06:52:02;23.10;97.80
1700;DHT22;847;48.058;7.810;2022-07-23T06:54:29;23.00;97.10
1700;DHT22;847;48.058;7.810;2022-07-23T06:56:55;23.00;97.40
1700;DHT22;847;48.058;7.810;2022-07-23T06:59:22;23.10;96.50
1700;DHT22;847;48.058;7.810;2022-07-23T07:01:49;23.10;96.30
1700;DHT22;847;48.058;7.810;2022-07-23T07:04:16;23.20;97.30
1700;DHT22;847;48.058;7.810;2022-07-23T07:06:44;23.30;96.70
1700;DHT22;847;48.058;7.810;2022-07-23T07:09:10;23.50;96.20
1700;DHT22;847;48.058;7.810;2022-07-23T07:11:37;23.50;95.60
1700;DHT22;847;48.058;7.810;2022-07-23T07:14:04;23.50;94.50
1700;DHT22;847;48.058;7.810;2022-07-23T07:16:31;23.50;93.70
1700;DHT22;847;48.058;7.810;2022-07-23T07:18:58;23.40;93.50
1700;DHT22;847;48.058;7.810;2022-07-23T07:21:25;23.50;94.40
1700;DHT22;847;48.058;7.810;2022-07-23T07:23:53;23.50;94.30
1700;DHT22;847;48.058;7.810;2022-07-23T07:26:20;23.60;93.40
1700;DHT22;847;48.058;7.810;2022-07-23T07:28:46;23.60;91.50
1700;DHT22;847;48.058;7.810;2022-07-23T07:31:13;23.50;91.70
1700;DHT22;847;48.058;7.810;2022-07-23T07:33:40;23.50;90.60
1700;DHT22;847;48.058;7.810;2022-07-23T07:36:07;23.50;91.10
1700;DHT22;847;48.058;7.810;2022-07-23T07:38:33;23.60;91.40
1700;DHT22;847;48.058;7.810;2022-07-23T07:41:02;23.70;92.00
1700;DHT22;847;48.058;7.810;2022-07-23T07:43:28;23.80;93.10
1700;DHT22;847;48.058;7.810;2022-07-23T07:45:55;23.90;92.50
1700;DHT22;847;48.058;7.810;2022-07-23T07:48:22;24.00;92.60
1700;DHT22;847;48.058;7.810;2022-07-23T07:50:49;24.00;91.90
1700;DHT22;847;48.058;7.810;2022-07-23T07:53:15;24.10;91.80
1700;DHT22;847;48.058;7.810;2022-07-23T07:55:42;24.10;91.50
1700;DHT22;847;48.058;7.810;2022-07-23T07:58:10;24.20;90.30
1700;DHT22;847;48.058;7.810;2022-07-23T08:00:37;24.20;90.50
1700;DHT22;847;48.058;7.810;2022-07-23T08:03:04;24.10;89.90
1700;DHT22;847;48.058;7.810;2022-07-23T08:05:30;24.20;89.90
1700;DHT22;847;48.058;7.810;2022-07-23T08:07:58;24.20;89.70
1700;DHT22;847;48.058;7.810;2022-07-23T08:10:27;24.20;89.10
1700;DHT22;847;48.058;7.810;2022-07-23T08:12:56;24.20;89.40
1700;DHT22;847;48.058;7.810;2022-07-23T08:15:25;24.20;89.50
1700;DHT22;847;48.058;7.810;2022-07-23T08:17:53;24.20;89.00
1700;DHT22;847;48.058;7.810;2022-07-23T08:20:21;24.20;88.60
1700;DHT22;847;48.058;7.810;2022-07-23T08:22:50;24.20;89.40
1700;DHT22;847;48.058;7.810;2022-07-23T08:25:21;24.20;88.20
1700;DHT22;847;48.058;7.810;2022-07-23T08:27:48;24.20;88.30
1700;DHT22;847;48.058;7.810;2022-07-23T08:30:16;24.30;88.70
1700;DHT22;847;48.058;7.810;2022-07-23T08:32:52;24.40;88.10
1700;DHT22;847;48.058;7.810;2022-07-23T08:35:23;24.40;88.20
1700;DHT22;847;48.058;7.810;2022-07-23T08:37:50;24.50;87.30
1700;DHT22;847;48.058;7.810;2022-07-23T08:40:17;24.60;87.80
1700;DHT22;847;48.058;7.810;2022-07-23T08:42:47;24.60;87.30
1700;DHT22;847;48.058;7.810;2022-07-23T08:45:16;24.60;86.70
1700;DHT22;847;48.058;7.810;2022-07-23T08:47:43;24.60;85.90
1700;DHT22;847;48.058;7.810;2022-07-23T08:50:12;24.60;85.70
1700;DHT22;847;48.058;7.810;2022-07-23T08:52:39;24.70;85.40
1700;DHT22;847;48.058;7.810;2022-07-23T08:55:07;24.70;85.40
1700;DHT22;847;48.058;7.810;2022-07-23T08:57:34;24.70;85.20
1700;DHT22;847;48.058;7.810;2022-07-23T09:00:03;24.70;86.00
1700;DHT22;847;48.058;7.810;2022-07-23T09:02:30;24.80;86.00
1700;DHT22;847;48.058;7.810;2022-07-23T09:04:56;24.90;84.90
1700;DHT22;847;48.058;7.810;2022-07-23T09:07:24;24.90;84.70
1700;DHT22;847;48.058;7.810;2022-07-23T09:10:06;24.90;83.80
1700;DHT22;847;48.058;7.810;2022-07-23T09:12:33;24.90;84.60
1700;DHT22;847;48.058;7.810;2022-07-23T09:15:04;24.90;83.80
1700;DHT22;847;48.058;7.810;2022-07-23T09:17:37;25.00;84.30
1700;DHT22;847;48.058;7.810;2022-07-23T09:20:09;25.00;82.80
1700;DHT22;847;48.058;7.810;2022-07-23T09:22:37;24.90;82.40
1700;DHT22;847;48.058;7.810;2022-07-23T09:25:08;24.90;83.80
1700;DHT22;847;48.058;7.810;2022-07-23T09:27:50;25.00;83.10
1700;DHT22;847;48.058;7.810;2022-07-23T09:30:18;25.00;81.30
1700;DHT22;847;48.058;7.810;2022-07-23T09:32:44;25.10;81.40
1700;DHT22;847;48.058;7.810;2022-07-23T09:35:43;25.10;80.60
1700;DHT22;847;48.058;7.810;2022-07-23T09:38:12;25.30;81.40
1700;DHT22;847;48.058;7.810;2022-07-23T09:40:39;25.30;79.90
1700;DHT22;847;48.058;7.810;2022-07-23T09:43:05;25.30;79.70
1700;DHT22;847;48.058;7.810;2022-07-23T09:45:32;25.30;78.90
1700;DHT22;847;48.058;7.810;2022-07-23T09:48:10;25.30;78.80
1700;DHT22;847;48.058;7.810;2022-07-23T09:50:37;25.40;79.30
1700;DHT22;847;48.058;7.810;2022-07-23T09:53:04;25.50;79.80
1700;DHT22;847;48.058;7.810;2022-07-23T09:55:35;25.60;79.60
1700;DHT22;847;48.058;7.810;2022-07-23T09:58:03;25.70;79.80
1700;DHT22;847;48.058;7.810;2022-07-23T10:00:31;25.90;78.90
1700;DHT22;847;48.058;7.810;2022-07-23T10:03:01;25.90;78.30
1700;DHT22;847;48.058;7.810;2022-07-23T10:05:29;25.90;80.00
1700;DHT22;847;48.058;7.810;2022-07-23T10:07:58;26.00;78.00
1700;DHT22;847;48.058;7.810;2022-07-23T10:10:27;26.00;76.60
1700;DHT22;847;48.058;7.810;2022-07-23T10:12:56;25.90;76.80
1700;DHT22;847;48.058;7.810;2022-07-23T10:15:46;25.90;76.80
1700;DHT22;847;48.058;7.810;2022-07-23T10:18:13;25.90;75.10
1700;DHT22;847;48.058;7.810;2022-07-23T10:20:40;25.90;75.70
1700;DHT22;847;48.058;7.810;2022-07-23T10:23:14;25.90;75.20
1700;DHT22;847;48.058;7.810;2022-07-23T10:25:48;26.00;75.40
1700;DHT22;847;48.058;7.810;2022-07-23T10:28:32;26.10;74.80
1700;DHT22;847;48.058;7.810;2022-07-23T10:31:09;26.10;75.70
1700;DHT22;847;48.058;7.810;2022-07-23T10:33:45;26.20;76.30
1700;DHT22;847;48.058;7.810;2022-07-23T10:36:20;26.30;77.40
1700;DHT22;847;48.058;7.810;2022-07-23T10:38:52;26.30;74.80
1700;DHT22;847;48.058;7.810;2022-07-23T10:41:32;26.40;77.40
1700;DHT22;847;48.058;7.810;2022-07-23T10:44:11;26.50;77.00
1700;DHT22;847;48.058;7.810;2022-07-23T10:46:53;26.50;72.20
1700;DHT22;847;48.058;7.810;2022-07-23T10:49:25;26.50;72.70
1700;DHT22;847;48.058;7.810;2022-07-23T10:52:18;26.50;72.00
1700;DHT22;847;48.058;7.810;2022-07-23T10:54:46;26.60;71.70
1700;DHT22;847;48.058;7.810;2022-07-23T10:57:15;26.50;71.20
1700;DHT22;847;48.058;7.810;2022-07-23T11:00:14;26.60;72.10
1700;DHT22;847;48.058;7.810;2022-07-23T11:02:44;26.60;73.20
1700;DHT22;847;48.058;7.810;2022-07-23T11:05:13;26.60;70.70
1700;DHT22;847;48.058;7.810;2022-07-23T11:08:16;26.70;72.00
1700;DHT22;847;48.058;7.810;2022-07-23T11:10:50;26.80;72.00
1700;DHT22;847;48.058;7.810;2022-07-23T11:13:37;26.90;69.40
1700;DHT22;847;48.058;7.810;2022-07-23T11:16:13;27.00;69.60
1700;DHT22;847;48.058;7.810;2022-07-23T11:19:05;27.00;70.00
1700;DHT22;847;48.058;7.810;2022-07-23T11:21:45;27.00;73.70
1700;DHT22;847;48.058;7.810;2022-07-23T11:24:14;27.10;69.60
1700;DHT22;847;48.058;7.810;2022-07-23T11:26:44;27.00;69.80
1700;DHT22;847;48.058;7.810;2022-07-23T11:29:42;27.00;70.20
1700;DHT22;847;48.058;7.810;2022-07-23T11:32:23;27.10;71.00
1700;DHT22;847;48.058;7.810;2022-07-23T11:34:51;27.10;69.00
1700;DHT22;847;48.058;7.810;2022-07-23T11:37:36;27.20;70.00
1700;DHT22;847;48.058;7.810;2022-07-23T11:40:07;27.20;69.50
1700;DHT22;847;48.058;7.810;2022-07-23T11:42:38;27.30;70.80
1700;DHT22;847;48.058;7.810;2022-07-23T11:45:07;27.40;69.70
1700;DHT22;847;48.058;7.810;2022-07-23T11:47:35;27.40;70.20
1700;DHT22;847;48.058;7.810;2022-07-23T11:50:04;27.40;71.00
1700;DHT22;847;48.058;7.810;2022-07-23T11:52:32;27.50;69.70
1700;DHT22;847;48.058;7.810;2022-07-23T11:55:01;27.50;69.80
1700;DHT22;847;48.058;7.810;2022-07-23T11:57:29;27.30;70.70
1700;DHT22;847;48.058;7.810;2022-07-23T11:59:58;27.40;70.40
1700;DHT22;847;48.058;7.810;2022-07-23T12:02:27;27.50;71.30
1700;DHT22;847;48.058;7.810;2022-07-23T12:04:55;27.70;70.00
1700;DHT22;847;48.058;7.810;2022-07-23T12:07:26;27.70;69.20
1700;DHT22;847;48.058;7.810;2022-07-23T12:09:53;27.70;70.30
1700;DHT22;847;48.058;7.810;2022-07-23T12:12:21;27.80;69.80
1700;DHT22;847;48.058;7.810;2022-07-23T12:14:49;27.80;70.10
1700;DHT22;847;48.058;7.810;2022-07-23T12:17:16;27.80;68.80
1700;DHT22;847;48.058;7.810;2022-07-23T12:19:43;27.70;69.40
1700;DHT22;847;48.058;7.810;2022-07-23T12:22:11;27.70;70.90
1700;DHT22;847;48.058;7.810;2022-07-23T12:24:56;27.80;70.10
1700;DHT22;847;48.058;7.810;2022-07-23T12:27:24;27.80;70.60
1700;DHT22;847;48.058;7.810;2022-07-23T12:29:51;27.70;69.90
1700;DHT22;847;48.058;7.810;2022-07-23T12:32:22;27.90;70.20
1700;DHT22;847;48.058;7.810;2022-07-23T12:34:50;28.00;70.30
1700;DHT22;847;48.058;7.810;2022-07-23T12:37:29;28.10;70.30
1700;DHT22;847;48.058;7.810;2022-07-23T12:39:56;28.20;70.60
1700;DHT22;847;48.058;7.810;2022-07-23T12:42:23;28.20;70.80
1700;DHT22;847;48.058;7.810;2022-07-23T12:45:05;28.20;70.30
1700;DHT22;847;48.058;7.810;2022-07-23T12:47:50;28.20;69.60
1700;DHT22;847;48.058;7.810;2022-07-23T12:50:35;28.20;71.00
1700;DHT22;847;48.058;7.810;2022-07-23T12:53:06;28.30;70.60
1700;DHT22;847;48.058;7.810;2022-07-23T12:55:33;28.40;70.90
1700;DHT22;847;48.058;7.810;2022-07-23T12:58:05;28.30;69.80
1700;DHT22;847;48.058;7.810;2022-07-23T13:00:32;28.20;70.10
1700;DHT22;847;48.058;7.810;2022-07-23T13:03:21;28.30;70.50
1700;DHT22;847;48.058;7.810;2022-07-23T13:05:48;28.60;69.10
1700;DHT22;847;48.058;7.810;2022-07-23T13:08:16;28.50;68.10
1700;DHT22;847;48.058;7.810;2022-07-23T13:10:43;28.30;69.90
1700;DHT22;847;48.058;7.810;2022-07-23T13:13:12;28.30;69.80
1700;DHT22;847;48.058;7.810;2022-07-23T13:15:39;28.20;69.70
1700;DHT22;847;48.058;7.810;2022-07-23T13:18:06;28.10;70.20
1700;DHT22;847;48.058;7.810;2022-07-23T13:20:32;28.20;70.40
1700;DHT22;847;48.058;7.810;2022-07-23T13:23:00;28.30;70.80
1700;DHT22;847;48.058;7.810;2022-07-23T13:25:28;28.40;71.10
1700;DHT22;847;48.058;7.810;2022-07-23T13:27:54;28.60;69.70
1700;DHT22;847;48.058;7.810;2022-07-23T13:30:21;28.70;71.40
1700;DHT22;847;48.058;7.810;2022-07-23T13:32:48;28.70;71.10
1700;DHT22;847;48.058;7.810;2022-07-23T13:35:15;28.70;69.90
1700;DHT22;847;48.058;7.810;2022-07-23T13:37:42;28.60;69.80
1700;DHT22;847;48.058;7.810;2022-07-23T13:40:09;28.50;70.10
1700;DHT22;847;48.058;7.810;2022-07-23T13:42:37;28.60;71.70
1700;DHT22;847;48.058;7.810;2022-07-23T13:45:06;28.60;71.30
1700;DHT22;847;48.058;7.810;2022-07-23T13:47:33;28.70;70.50
1700;DHT22;847;48.058;7.810;2022-07-23T13:49:59;28.70;70.10
1700;DHT22;847;48.058;7.810;2022-07-23T13:52:26;28.60;70.00
1700;DHT22;847;48.058;7.810;2022-07-23T13:54:53;28.60;69.60
1700;DHT22;847;48.058;7.810;2022-07-23T13:57:20;28.50;69.90
1700;DHT22;847;48.058;7.810;2022-07-23T13:59:48;28.50;69.30
1700;DHT22;847;48.058;7.810;2022-07-23T14:02:16;28.60;70.90
1700;DHT22;847;48.058;7.810;2022-07-23T14:04:44;28.50;70.50
1700;DHT22;847;48.058;7.810;2022-07-23T14:07:11;28.50;70.30
1700;DHT22;847;48.058;7.810;2022-07-23T14:09:38;28.40;70.00
1700;DHT22;847;48.058;7.810;2022-07-23T14:12:06;28.50;70.00
1700;DHT22;847;48.058;7.810;2022-07-23T14:14:33;28.40;69.50
1700;DHT22;847;48.058;7.810;2022-07-23T14:17:01;28.40;69.70
1700;DHT22;847;48.058;7.810;2022-07-23T14:19:28;28.50;69.90
1700;DHT22;847;48.058;7.810;2022-07-23T14:21:55;28.50;67.50
1700;DHT22;847;48.058;7.810;2022-07-23T14:24:22;28.50;68.80
1700;DHT22;847;48.058;7.810;2022-07-23T14:26:49;28.50;69.70
1700;DHT22;847;48.058;7.810;2022-07-23T14:29:16;28.60;70.00
1700;DHT22;847;48.058;7.810;2022-07-23T14:31:42;28.50;70.50
1700;DHT22;847;48.058;7.810;2022-07-23T14:34:10;28.50;68.90
1700;DHT22;847;48.058;7.810;2022-07-23T14:36:38;28.40;69.30
1700;DHT22;847;48.058;7.810;2022-07-23T14:39:05;28.40;70.20
1700;DHT22;847;48.058;7.810;2022-07-23T14:41:34;28.50;69.50
1700;DHT22;847;48.058;7.810;2022-07-23T14:44:01;28.50;70.10
1700;DHT22;847;48.058;7.810;2022-07-23T14:46:28;28.50;70.10
1700;DHT22;847;48.058;7.810;2022-07-23T14:48:54;28.60;69.70
1700;DHT22;847;48.058;7.810;2022-07-23T14:51:23;28.60;69.30
1700;DHT22;847;48.058;7.810;2022-07-23T14:53:49;28.60;69.10
1700;DHT22;847;48.058;7.810;2022-07-23T14:56:16;28.60;69.40
1700;DHT22;847;48.058;7.810;2022-07-23T14:58:43;28.60;69.10
1700;DHT22;847;48.058;7.810;2022-07-23T15:01:10;28.60;68.40
1700;DHT22;847;48.058;7.810;2022-07-23T15:03:37;28.60;69.50
1700;DHT22;847;48.058;7.810;2022-07-23T15:06:04;28.60;68.40
1700;DHT22;847;48.058;7.810;2022-07-23T15:08:32;28.70;68.50
1700;DHT22;847;48.058;7.810;2022-07-23T15:10:59;28.70;70.10
1700;DHT22;847;48.058;7.810;2022-07-23T15:13:25;28.70;69.60
1700;DHT22;847;48.058;7.810;2022-07-23T15:15:52;28.70;68.90
1700;DHT22;847;48.058;7.810;2022-07-23T15:18:19;28.70;69.50
1700;DHT22;847;48.058;7.810;2022-07-23T15:20:46;28.70;69.10
1700;DHT22;847;48.058;7.810;2022-07-23T15:23:12;28.80;68.60
1700;DHT22;847;48.058;7.810;2022-07-23T15:25:40;29.00;67.70
1700;DHT22;847;48.058;7.810;2022-07-23T15:28:07;29.10;67.60
1700;DHT22;847;48.058;7.810;2022-07-23T15:30:34;29.20;67.80
1700;DHT22;847;48.058;7.810;2022-07-23T15:33:00;29.20;67.30
1700;DHT22;847;48.058;7.810;2022-07-23T15:35:27;29.20;68.30
1700;DHT22;847;48.058;7.810;2022-07-23T15:37:55;29.20;67.50
1700;DHT22;847;48.058;7.810;2022-07-23T15:40:22;29.20;66.20
1700;DHT22;847;48.058;7.810;2022-07-23T15:42:50;29.20;66.20
1700;DHT22;847;48.058;7.810;2022-07-23T15:45:16;29.20;63.70
1700;DHT22;847;48.058;7.810;2022-07-23T15:47:43;29.20;65.60
1700;DHT22;847;48.058;7.810;2022-07-23T15:50:10;29.20;64.50
1700;DHT22;847;48.058;7.810;2022-07-23T15:52:37;29.30;65.40
1700;DHT22;847;48.058;7.810;2022-07-23T15:55:04;29.30;65.80
1700;DHT22;847;48.058;7.810;2022-07-23T15:57:31;29.30;64.90
1700;DHT22;847;48.058;7.810;2022-07-23T15:59:59;29.20;64.40
1700;DHT22;847;48.058;7.810;2022-07-23T16:02:26;29.30;65.20
1700;DHT22;847;48.058;7.810;2022-07-23T16:04:53;29.40;64.90
1700;DHT22;847;48.058;7.810;2022-07-23T16:07:20;29.50;64.10
1700;DHT22;847;48.058;7.810;2022-07-23T16:09:47;29.40;65.00
1700;DHT22;847;48.058;7.810;2022-07-23T16:12:14;29.50;64.00
1700;DHT22;847;48.058;7.810;2022-07-23T16:14:40;29.40;64.40
1700;DHT22;847;48.058;7.810;2022-07-23T16:17:09;29.40;64.70
1700;DHT22;847;48.058;7.810;2022-07-23T16:19:35;29.40;65.90
1700;DHT22;847;48.058;7.810;2022-07-23T16:22:02;29.40;64.90
1700;DHT22;847;48.058;7.810;2022-07-23T16:24:29;29.40;65.30